Suomigracht — PHBT — position and weather

sailwx.info

Track history (hours):
 
Tides and Currents Weather Stations Pressure Air Temp Water Temp Dewpoint Dewpoint Depression Visibility Wind Speed Wind Dir Waves Ship Positions

Suomigracht

Last reported at 2015-Apr-17 20:30 UTC. Time now 2015-Apr-21 03:02 UTC.
Position N 40°12' E 018°39'.

Length 173 m; beam 26 m.

Type: Cargo ship. MMSI: 246100000.

Date/timePositionNaut miles runAvg speedWind from/ knotsBaromVisibWave heightAir tempDewpointWater temp
2015-Apr-17 20:30N 40°12' E 018°39'1617.2
2015-Apr-17 19:34N 39°56' E 018°37'2217.0
2015-Apr-17 18:16N 39°38' E 018°22'1216.8
2015-Apr-17 17:34N 39°28' E 018°12'22317.1
2015-Apr-17 04:31N 36°37' E 015°11'1616.7
2015-Apr-17 03:33N 36°30' E 014°53'1717.2
2015-Apr-17 02:34N 36°32' E 014°32'1717.4
2015-Apr-17 01:33N 36°40' E 014°13'1717.4
2015-Apr-17 00:33N 36°49' E 013°54'1717.2
2015-Apr-16 23:33N 36°58' E 013°36'7516.6
2015-Apr-16 19:03N 37°38' E 012°16'1216.6
2015-Apr-16 18:20N 37°46' E 012°05'1615.9
2015-Apr-16 17:18N 37°59' E 011°52'1115.2
2015-Apr-16 16:34N 38°09' E 011°46'1614.9
2015-Apr-16 15:31N 38°25' E 011°42'5216.1
2015-Apr-16 12:17N 39°14' E 011°21'1216.2
2015-Apr-16 11:33N 39°25' E 011°16'2116.4
2015-Apr-16 10:18N 39°45' E 011°08'1516.5
2015-Apr-16 09:22N 39°59' E 011°02'9416.2
2015-Apr-16 03:32N 41°29' E 010°22'1616.3
2015-Apr-16 02:34N 41°44' E 010°16'1716.6
2015-Apr-16 01:33N 41°59' E 010°08'1616.4
2015-Apr-16 00:33N 42°15' E 010°01'1616.1
2015-Apr-15 23:33N 42°30' E 009°55'1616.4
2015-Apr-15 22:34N 42°47' E 009°56'1615.7
2015-Apr-15 21:34N 43°02' E 010°03'1616.4
2015-Apr-15 20:34N 43°18' E 010°07'1515.2
2015-Apr-15 19:33N 43°32' E 010°15'4 3.5
2015-Apr-15 18:31N 43°35' E 010°18'0 0.0
2015-Apr-15 17:31N 43°35' E 010°18'0 0.0
2015-Apr-15 16:31N 43°35' E 010°18'0 0.0
2015-Apr-15 15:31N 43°35' E 010°18'0 0.0
2015-Apr-15 14:31N 43°35' E 010°18'0 0.0
2015-Apr-15 13:22N 43°35' E 010°18'0 0.0
2015-Apr-15 12:31N 43°35' E 010°18'0 0.0
2015-Apr-15 11:31N 43°35' E 010°18'0 0.0
2015-Apr-15 10:31N 43°35' E 010°18'0 0.0
2015-Apr-15 09:31N 43°35' E 010°18'0 0.0
2015-Apr-15 08:31N 43°35' E 010°18'0 0.0
2015-Apr-15 07:31N 43°35' E 010°18'0 0.0
2015-Apr-15 06:31N 43°35' E 010°18'0 0.0
2015-Apr-15 05:31N 43°35' E 010°18'0 0.0
2015-Apr-15 04:31N 43°35' E 010°18'0 0.0
2015-Apr-15 03:28N 43°35' E 010°18'0 0.0
2015-Apr-15 02:28N 43°35' E 010°18'0 0.0
2015-Apr-15 01:33N 43°35' E 010°18'0 0.0
2015-Apr-15 00:30N 43°35' E 010°18'0 0.0
2015-Apr-14 23:33N 43°35' E 010°18'0 0.0
2015-Apr-14 22:30N 43°35' E 010°18'0 0.0
2015-Apr-14 21:33N 43°35' E 010°18'0 0.0
2015-Apr-14 20:33N 43°35' E 010°18'0 0.0
2015-Apr-14 19:30N 43°35' E 010°18'3 3.4
2015-Apr-14 18:33N 43°32' E 010°16'2 1.9
2015-Apr-14 17:28N 43°30' E 010°17'0 0.1
2015-Apr-14 16:31N 43°30' E 010°17'0 0.0
2015-Apr-14 15:31N 43°30' E 010°17'0 0.0
2015-Apr-14 14:28N 43°30' E 010°17'0 0.0
2015-Apr-14 13:31N 43°30' E 010°17'0 0.0
2015-Apr-14 12:31N 43°30' E 010°17'0 0.0
2015-Apr-14 11:28N 43°30' E 010°17'0 0.0
2015-Apr-14 10:31N 43°30' E 010°17'0 0.0
2015-Apr-14 09:31N 43°30' E 010°17'0 0.0
2015-Apr-14 08:31N 43°30' E 010°17'0 0.0
2015-Apr-14 07:31N 43°30' E 010°17'0 0.0
2015-Apr-13 17:31N 43°30' E 010°17'3 3.5
2015-Apr-13 16:33N 43°27' E 010°13'1413.7
2015-Apr-13 15:34N 43°19' E 009°59'1716.7
2015-Apr-13 14:33N 43°13' E 009°38'1717.0
2015-Apr-13 13:33N 43°06' E 009°16'4019.5
2015-Apr-13 11:31N 42°46' E 008°29'4119.6
2015-Apr-13 09:26N 42°26' E 007°41'2319.2
2015-Apr-13 08:13N 42°14' E 007°14'1619.5
2015-Apr-13 07:24N 42°06' E 006°55'2419.4
2015-Apr-13 06:09N 41°54' E 006°27'16619.3
2015-Apr-12 21:33N 40°31' E 003°17'1918.9
2015-Apr-12 20:33N 40°21' E 002°55'1918.8
2015-Apr-12 19:33N 40°12' E 002°34'1918.7
2015-Apr-12 18:33N 40°03' E 002°12'1918.8
2015-Apr-12 17:33N 39°53' E 001°51'1918.8
2015-Apr-12 16:33N 39°44' E 001°30'  
2015-Apr-10 03:30N 38°28' E 000°16'3317.1
2015-Apr-10 01:33N 38°00' W 000°07'1717.4
2015-Apr-10 00:33N 37°46' W 000°19'1717.1
2015-Apr-09 23:33N 37°31' W 000°32'1717.1
2015-Apr-09 22:33N 37°20' W 000°48'23116.5
2015-Apr-09 08:33N 35°59' W 005°18'64719.0
2015-Apr-07 22:28N 28°44' W 014°44'1718.4
2015-Apr-07 21:34N 28°32' W 014°57'1818.3
2015-Apr-07 20:34N 28°18' W 015°11'  
Track history (hours):
 
Tides and Currents Weather Stations Pressure Air Temp Water Temp Dewpoint Dewpoint Depression Visibility Wind Speed Wind Dir Waves Ship Positions

Suomigracht

Last reported at 2015-Apr-17 20:30 UTC. Time now 2015-Apr-21 03:02 UTC.
Position N 40°12' E 018°39'.

Length 173 m; beam 26 m.

Type: Cargo ship. MMSI: 246100000.

Date/timePositionNaut miles runAvg speedWind from/ knotsBaromVisibWave heightAir tempDewpointWater temp
2015-Apr-17 20:30N 40°12' E 018°39'1617.2
2015-Apr-17 19:34N 39°56' E 018°37'2217.0
2015-Apr-17 18:16N 39°38' E 018°22'1216.8
2015-Apr-17 17:34N 39°28' E 018°12'22317.1
2015-Apr-17 04:31N 36°37' E 015°11'1616.7
2015-Apr-17 03:33N 36°30' E 014°53'1717.2
2015-Apr-17 02:34N 36°32' E 014°32'1717.4
2015-Apr-17 01:33N 36°40' E 014°13'1717.4
2015-Apr-17 00:33N 36°49' E 013°54'1717.2
2015-Apr-16 23:33N 36°58' E 013°36'7516.6
2015-Apr-16 19:03N 37°38' E 012°16'1216.6
2015-Apr-16 18:20N 37°46' E 012°05'1615.9
2015-Apr-16 17:18N 37°59' E 011°52'1115.2
2015-Apr-16 16:34N 38°09' E 011°46'1614.9
2015-Apr-16 15:31N 38°25' E 011°42'5216.1
2015-Apr-16 12:17N 39°14' E 011°21'1216.2
2015-Apr-16 11:33N 39°25' E 011°16'2116.4
2015-Apr-16 10:18N 39°45' E 011°08'1516.5
2015-Apr-16 09:22N 39°59' E 011°02'9416.2
2015-Apr-16 03:32N 41°29' E 010°22'1616.3
2015-Apr-16 02:34N 41°44' E 010°16'1716.6
2015-Apr-16 01:33N 41°59' E 010°08'1616.4
2015-Apr-16 00:33N 42°15' E 010°01'1616.1
2015-Apr-15 23:33N 42°30' E 009°55'1616.4
2015-Apr-15 22:34N 42°47' E 009°56'1615.7
2015-Apr-15 21:34N 43°02' E 010°03'1616.4
2015-Apr-15 20:34N 43°18' E 010°07'1515.2
2015-Apr-15 19:33N 43°32' E 010°15'4 3.5
2015-Apr-15 18:31N 43°35' E 010°18'0 0.0
2015-Apr-15 17:31N 43°35' E 010°18'0 0.0
2015-Apr-15 16:31N 43°35' E 010°18'0 0.0
2015-Apr-15 15:31N 43°35' E 010°18'0 0.0
2015-Apr-15 14:31N 43°35' E 010°18'0 0.0
2015-Apr-15 13:22N 43°35' E 010°18'0 0.0
2015-Apr-15 12:31N 43°35' E 010°18'0 0.0
2015-Apr-15 11:31N 43°35' E 010°18'0 0.0
2015-Apr-15 10:31N 43°35' E 010°18'0 0.0
2015-Apr-15 09:31N 43°35' E 010°18'0 0.0
2015-Apr-15 08:31N 43°35' E 010°18'0 0.0
2015-Apr-15 07:31N 43°35' E 010°18'0 0.0
2015-Apr-15 06:31N 43°35' E 010°18'0 0.0
2015-Apr-15 05:31N 43°35' E 010°18'0 0.0
2015-Apr-15 04:31N 43°35' E 010°18'0 0.0
2015-Apr-15 03:28N 43°35' E 010°18'0 0.0
2015-Apr-15 02:28N 43°35' E 010°18'0 0.0
2015-Apr-15 01:33N 43°35' E 010°18'0 0.0
2015-Apr-15 00:30N 43°35' E 010°18'0 0.0
2015-Apr-14 23:33N 43°35' E 010°18'0 0.0
2015-Apr-14 22:30N 43°35' E 010°18'0 0.0
2015-Apr-14 21:33N 43°35' E 010°18'0 0.0
2015-Apr-14 20:33N 43°35' E 010°18'0 0.0
2015-Apr-14 19:30N 43°35' E 010°18'3 3.4
2015-Apr-14 18:33N 43°32' E 010°16'2 1.9
2015-Apr-14 17:28N 43°30' E 010°17'0 0.1
2015-Apr-14 16:31N 43°30' E 010°17'0 0.0
2015-Apr-14 15:31N 43°30' E 010°17'0 0.0
2015-Apr-14 14:28N 43°30' E 010°17'0 0.0
2015-Apr-14 13:31N 43°30' E 010°17'0 0.0
2015-Apr-14 12:31N 43°30' E 010°17'0 0.0
2015-Apr-14 11:28N 43°30' E 010°17'0 0.0
2015-Apr-14 10:31N 43°30' E 010°17'0 0.0
2015-Apr-14 09:31N 43°30' E 010°17'0 0.0
2015-Apr-14 08:31N 43°30' E 010°17'0 0.0
2015-Apr-14 07:31N 43°30' E 010°17'0 0.0
2015-Apr-13 17:31N 43°30' E 010°17'3 3.5
2015-Apr-13 16:33N 43°27' E 010°13'1413.7
2015-Apr-13 15:34N 43°19' E 009°59'1716.7
2015-Apr-13 14:33N 43°13' E 009°38'1717.0
2015-Apr-13 13:33N 43°06' E 009°16'4019.5
2015-Apr-13 11:31N 42°46' E 008°29'4119.6
2015-Apr-13 09:26N 42°26' E 007°41'2319.2
2015-Apr-13 08:13N 42°14' E 007°14'1619.5
2015-Apr-13 07:24N 42°06' E 006°55'2419.4
2015-Apr-13 06:09N 41°54' E 006°27'16619.3
2015-Apr-12 21:33N 40°31' E 003°17'1918.9
2015-Apr-12 20:33N 40°21' E 002°55'1918.8
2015-Apr-12 19:33N 40°12' E 002°34'1918.7
2015-Apr-12 18:33N 40°03' E 002°12'1918.8
2015-Apr-12 17:33N 39°53' E 001°51'1918.8
2015-Apr-12 16:33N 39°44' E 001°30'  
2015-Apr-10 03:30N 38°28' E 000°16'3317.1
2015-Apr-10 01:33N 38°00' W 000°07'1717.4
2015-Apr-10 00:33N 37°46' W 000°19'1717.1
2015-Apr-09 23:33N 37°31' W 000°32'1717.1
2015-Apr-09 22:33N 37°20' W 000°48'23116.5
2015-Apr-09 08:33N 35°59' W 005°18'64719.0
2015-Apr-07 22:28N 28°44' W 014°44'1718.4
2015-Apr-07 21:34N 28°32' W 014°57'1818.3
2015-Apr-07 20:34N 28°18' W 015°11'  

Dump ship's entire track history